Terminal Aerodrome Forecast
Issued by NWS

Home | Current Version | Previous Version | Text Only | Print | Product List | Glossary On
Versions: 1 2 3 4 5 6 7 8 9 10 11 12 13 14 15 16 17 18 19 20
078
FTUS46 KPDT 080520
TAFYKM
TAF
KYKM 080520Z 0806/0906 31006KT P6SM BKN150
     FM081500 33007KT P6SM OVC100
     FM082000 33007KT 3SM -SN BR OVC030=

USA.gov is the U.S. government's official web portal to all federal, state and local government web resources and services.